sensor_id;sensor_type;location;lat;lon;timestamp;temperature;humidity
7936;DHT22;4013;49.744;8.118;2023-10-31T00:02:23;12.00;99.90
7936;DHT22;4013;49.744;8.118;2023-10-31T00:04:52;11.90;99.90
7936;DHT22;4013;49.744;8.118;2023-10-31T00:07:20;11.90;99.90
7936;DHT22;4013;49.744;8.118;2023-10-31T00:09:47;11.90;99.90
7936;DHT22;4013;49.744;8.118;2023-10-31T00:12:14;11.90;99.90
7936;DHT22;4013;49.744;8.118;2023-10-31T00:14:41;11.90;99.90
7936;DHT22;4013;49.744;8.118;2023-10-31T00:17:07;11.80;99.90
7936;DHT22;4013;49.744;8.118;2023-10-31T00:19:34;11.80;99.90
7936;DHT22;4013;49.744;8.118;2023-10-31T00:22:01;11.80;99.90
7936;DHT22;4013;49.744;8.118;2023-10-31T00:24:29;11.80;99.90
7936;DHT22;4013;49.744;8.118;2023-10-31T00:26:57;11.80;99.90
7936;DHT22;4013;49.744;8.118;2023-10-31T00:29:24;11.80;99.90
7936;DHT22;4013;49.744;8.118;2023-10-31T00:31:51;11.80;99.90
7936;DHT22;4013;49.744;8.118;2023-10-31T00:34:18;11.80;99.90
7936;DHT22;4013;49.744;8.118;2023-10-31T00:36:45;11.70;99.90
7936;DHT22;4013;49.744;8.118;2023-10-31T00:39:11;11.70;99.90
7936;DHT22;4013;49.744;8.118;2023-10-31T00:41:43;11.70;99.90
7936;DHT22;4013;49.744;8.118;2023-10-31T00:44:10;11.70;99.90
7936;DHT22;4013;49.744;8.118;2023-10-31T00:46:36;11.70;99.90
7936;DHT22;4013;49.744;8.118;2023-10-31T00:49:03;11.70;99.90
7936;DHT22;4013;49.744;8.118;2023-10-31T00:51:30;11.70;99.90
7936;DHT22;4013;49.744;8.118;2023-10-31T00:53:57;11.70;99.90
7936;DHT22;4013;49.744;8.118;2023-10-31T00:56:24;11.60;99.90
7936;DHT22;4013;49.744;8.118;2023-10-31T00:58:52;11.70;99.90
7936;DHT22;4013;49.744;8.118;2023-10-31T01:01:18;11.70;99.90
7936;DHT22;4013;49.744;8.118;2023-10-31T01:03:45;11.70;99.90
7936;DHT22;4013;49.744;8.118;2023-10-31T01:06:12;11.70;99.90
7936;DHT22;4013;49.744;8.118;2023-10-31T01:08:39;11.70;99.90
7936;DHT22;4013;49.744;8.118;2023-10-31T01:11:06;11.60;99.90
7936;DHT22;4013;49.744;8.118;2023-10-31T01:13:33;11.60;99.90
7936;DHT22;4013;49.744;8.118;2023-10-31T01:16:01;11.60;99.90
7936;DHT22;4013;49.744;8.118;2023-10-31T01:18:27;11.60;99.90
7936;DHT22;4013;49.744;8.118;2023-10-31T01:20:54;11.50;99.90
7936;DHT22;4013;49.744;8.118;2023-10-31T01:23:21;11.50;99.90
7936;DHT22;4013;49.744;8.118;2023-10-31T01:25:48;11.50;99.90
7936;DHT22;4013;49.744;8.118;2023-10-31T01:28:15;11.50;99.90
7936;DHT22;4013;49.744;8.118;2023-10-31T01:30:42;11.50;99.90
7936;DHT22;4013;49.744;8.118;2023-10-31T01:33:10;11.40;99.90
7936;DHT22;4013;49.744;8.118;2023-10-31T01:35:37;11.40;99.90
7936;DHT22;4013;49.744;8.118;2023-10-31T01:38:03;11.40;99.90
7936;DHT22;4013;49.744;8.118;2023-10-31T01:40:30;11.30;99.90
7936;DHT22;4013;49.744;8.118;2023-10-31T01:42:57;11.30;99.90
7936;DHT22;4013;49.744;8.118;2023-10-31T01:45:24;11.30;99.90
7936;DHT22;4013;49.744;8.118;2023-10-31T01:47:50;11.20;99.90
7936;DHT22;4013;49.744;8.118;2023-10-31T01:50:19;11.20;99.90
7936;DHT22;4013;49.744;8.118;2023-10-31T01:52:46;11.10;99.90
7936;DHT22;4013;49.744;8.118;2023-10-31T01:55:13;11.10;99.90
7936;DHT22;4013;49.744;8.118;2023-10-31T01:57:40;11.00;99.90
7936;DHT22;4013;49.744;8.118;2023-10-31T02:00:07;11.00;99.90
7936;DHT22;4013;49.744;8.118;2023-10-31T02:02:34;11.00;99.90
7936;DHT22;4013;49.744;8.118;2023-10-31T02:05:02;11.10;99.90
7936;DHT22;4013;49.744;8.118;2023-10-31T02:07:30;11.10;99.90
7936;DHT22;4013;49.744;8.118;2023-10-31T02:09:57;11.10;99.90
7936;DHT22;4013;49.744;8.118;2023-10-31T02:12:30;11.10;99.90
7936;DHT22;4013;49.744;8.118;2023-10-31T02:14:57;11.10;99.90
7936;DHT22;4013;49.744;8.118;2023-10-31T02:17:24;11.10;99.90
7936;DHT22;4013;49.744;8.118;2023-10-31T02:19:51;11.20;99.90
7936;DHT22;4013;49.744;8.118;2023-10-31T02:22:19;11.20;99.90
7936;DHT22;4013;49.744;8.118;2023-10-31T02:24:46;11.20;99.90
7936;DHT22;4013;49.744;8.118;2023-10-31T02:27:13;11.20;99.90
7936;DHT22;4013;49.744;8.118;2023-10-31T02:29:40;11.30;99.90
7936;DHT22;4013;49.744;8.118;2023-10-31T02:32:06;11.30;99.90
7936;DHT22;4013;49.744;8.118;2023-10-31T02:34:33;11.30;99.90
7936;DHT22;4013;49.744;8.118;2023-10-31T02:37:00;11.30;99.90
7936;DHT22;4013;49.744;8.118;2023-10-31T02:39:29;11.20;99.90
7936;DHT22;4013;49.744;8.118;2023-10-31T02:41:55;11.30;99.90
7936;DHT22;4013;49.744;8.118;2023-10-31T02:44:23;11.30;99.90
7936;DHT22;4013;49.744;8.118;2023-10-31T02:46:51;11.20;99.90
7936;DHT22;4013;49.744;8.118;2023-10-31T02:49:18;11.20;99.90
7936;DHT22;4013;49.744;8.118;2023-10-31T02:51:45;11.20;99.90
7936;DHT22;4013;49.744;8.118;2023-10-31T02:54:12;11.20;99.90
7936;DHT22;4013;49.744;8.118;2023-10-31T02:56:40;11.10;99.90
7936;DHT22;4013;49.744;8.118;2023-10-31T02:59:07;11.10;99.90
7936;DHT22;4013;49.744;8.118;2023-10-31T03:01:34;11.00;99.90
7936;DHT22;4013;49.744;8.118;2023-10-31T03:04:01;11.00;99.90
7936;DHT22;4013;49.744;8.118;2023-10-31T03:06:28;11.00;99.90
7936;DHT22;4013;49.744;8.118;2023-10-31T03:08:55;11.00;99.90
7936;DHT22;4013;49.744;8.118;2023-10-31T03:11:21;11.10;99.90
7936;DHT22;4013;49.744;8.118;2023-10-31T03:13:50;11.10;99.90
7936;DHT22;4013;49.744;8.118;2023-10-31T03:16:18;11.10;99.90
7936;DHT22;4013;49.744;8.118;2023-10-31T03:18:45;11.20;99.90
7936;DHT22;4013;49.744;8.118;2023-10-31T03:21:12;11.20;99.90
7936;DHT22;4013;49.744;8.118;2023-10-31T03:23:40;11.20;99.90
7936;DHT22;4013;49.744;8.118;2023-10-31T03:26:06;11.20;99.90
7936;DHT22;4013;49.744;8.118;2023-10-31T03:28:33;11.20;99.90
7936;DHT22;4013;49.744;8.118;2023-10-31T03:31:02;11.20;99.90
7936;DHT22;4013;49.744;8.118;2023-10-31T03:33:29;11.20;99.90
7936;DHT22;4013;49.744;8.118;2023-10-31T03:35:55;11.30;99.90
7936;DHT22;4013;49.744;8.118;2023-10-31T03:38:22;11.30;99.90
7936;DHT22;4013;49.744;8.118;2023-10-31T03:40:49;11.40;99.90
7936;DHT22;4013;49.744;8.118;2023-10-31T03:43:16;11.40;99.90
7936;DHT22;4013;49.744;8.118;2023-10-31T03:45:43;11.30;99.90
7936;DHT22;4013;49.744;8.118;2023-10-31T03:48:11;11.30;99.90
7936;DHT22;4013;49.744;8.118;2023-10-31T03:50:38;11.30;99.90
7936;DHT22;4013;49.744;8.118;2023-10-31T03:53:05;11.30;99.90
7936;DHT22;4013;49.744;8.118;2023-10-31T03:55:32;11.30;99.90
7936;DHT22;4013;49.744;8.118;2023-10-31T03:57:58;11.40;99.90
7936;DHT22;4013;49.744;8.118;2023-10-31T04:00:25;11.30;99.90
7936;DHT22;4013;49.744;8.118;2023-10-31T04:02:52;11.30;99.90
7936;DHT22;4013;49.744;8.118;2023-10-31T04:05:21;11.30;99.90
7936;DHT22;4013;49.744;8.118;2023-10-31T04:07:48;11.30;99.90
7936;DHT22;4013;49.744;8.118;2023-10-31T04:10:15;11.40;99.90
7936;DHT22;4013;49.744;8.118;2023-10-31T04:12:42;11.30;99.90
7936;DHT22;4013;49.744;8.118;2023-10-31T04:15:09;11.30;99.90
7936;DHT22;4013;49.744;8.118;2023-10-31T04:17:35;11.30;99.90
7936;DHT22;4013;49.744;8.118;2023-10-31T04:20:02;11.30;99.90
7936;DHT22;4013;49.744;8.118;2023-10-31T04:22:31;11.30;99.90
7936;DHT22;4013;49.744;8.118;2023-10-31T04:24:57;11.30;99.90
7936;DHT22;4013;49.744;8.118;2023-10-31T04:27:24;11.30;99.90
7936;DHT22;4013;49.744;8.118;2023-10-31T04:29:52;11.20;99.90
7936;DHT22;4013;49.744;8.118;2023-10-31T04:32:19;11.20;99.90
7936;DHT22;4013;49.744;8.118;2023-10-31T04:34:46;11.20;99.90
7936;DHT22;4013;49.744;8.118;2023-10-31T04:37:13;11.20;99.90
7936;DHT22;4013;49.744;8.118;2023-10-31T04:39:41;11.20;99.90
7936;DHT22;4013;49.744;8.118;2023-10-31T04:42:08;11.20;99.90
7936;DHT22;4013;49.744;8.118;2023-10-31T04:44:35;11.20;99.90
7936;DHT22;4013;49.744;8.118;2023-10-31T04:47:02;11.20;99.90
7936;DHT22;4013;49.744;8.118;2023-10-31T04:49:28;11.20;99.90
7936;DHT22;4013;49.744;8.118;2023-10-31T04:51:55;11.20;99.90
7936;DHT22;4013;49.744;8.118;2023-10-31T04:54:22;11.20;99.90
7936;DHT22;4013;49.744;8.118;2023-10-31T04:56:51;11.20;99.90
7936;DHT22;4013;49.744;8.118;2023-10-31T04:59:18;11.10;99.90
7936;DHT22;4013;49.744;8.118;2023-10-31T05:01:48;11.20;99.90
7936;DHT22;4013;49.744;8.118;2023-10-31T05:04:14;11.20;99.90
7936;DHT22;4013;49.744;8.118;2023-10-31T05:06:41;11.10;99.90
7936;DHT22;4013;49.744;8.118;2023-10-31T05:09:08;11.10;99.90
7936;DHT22;4013;49.744;8.118;2023-10-31T05:11:35;11.10;99.90
7936;DHT22;4013;49.744;8.118;2023-10-31T05:14:07;11.10;99.90
7936;DHT22;4013;49.744;8.118;2023-10-31T05:16:38;11.10;99.90
7936;DHT22;4013;49.744;8.118;2023-10-31T05:19:05;11.00;99.90
7936;DHT22;4013;49.744;8.118;2023-10-31T05:21:32;11.00;99.90
7936;DHT22;4013;49.744;8.118;2023-10-31T05:23:58;11.00;99.90
7936;DHT22;4013;49.744;8.118;2023-10-31T05:26:25;11.00;99.90
7936;DHT22;4013;49.744;8.118;2023-10-31T05:28:53;11.00;99.90
7936;DHT22;4013;49.744;8.118;2023-10-31T05:31:21;11.00;99.90
7936;DHT22;4013;49.744;8.118;2023-10-31T05:33:48;11.00;99.90
7936;DHT22;4013;49.744;8.118;2023-10-31T05:36:18;10.90;99.90
7936;DHT22;4013;49.744;8.118;2023-10-31T05:38:45;10.80;99.90
7936;DHT22;4013;49.744;8.118;2023-10-31T05:41:12;10.80;99.90
7936;DHT22;4013;49.744;8.118;2023-10-31T05:43:39;10.70;99.90
7936;DHT22;4013;49.744;8.118;2023-10-31T05:46:06;10.70;99.90
7936;DHT22;4013;49.744;8.118;2023-10-31T05:48:38;10.70;99.90
7936;DHT22;4013;49.744;8.118;2023-10-31T05:51:10;10.70;99.90
7936;DHT22;4013;49.744;8.118;2023-10-31T05:53:37;10.60;99.90
7936;DHT22;4013;49.744;8.118;2023-10-31T05:56:04;10.60;99.90
7936;DHT22;4013;49.744;8.118;2023-10-31T05:58:32;10.60;99.90
7936;DHT22;4013;49.744;8.118;2023-10-31T06:00:59;10.60;99.90
7936;DHT22;4013;49.744;8.118;2023-10-31T06:03:26;10.60;99.90
7936;DHT22;4013;49.744;8.118;2023-10-31T06:05:54;10.60;99.90
7936;DHT22;4013;49.744;8.118;2023-10-31T06:08:21;10.50;99.90
7936;DHT22;4013;49.744;8.118;2023-10-31T06:10:49;10.50;99.90
7936;DHT22;4013;49.744;8.118;2023-10-31T06:13:16;10.50;99.90
7936;DHT22;4013;49.744;8.118;2023-10-31T06:15:43;10.60;99.90
7936;DHT22;4013;49.744;8.118;2023-10-31T06:18:09;10.60;99.90
7936;DHT22;4013;49.744;8.118;2023-10-31T06:20:37;10.70;99.90
7936;DHT22;4013;49.744;8.118;2023-10-31T06:23:06;10.70;99.90
7936;DHT22;4013;49.744;8.118;2023-10-31T06:25:33;10.70;99.90
7936;DHT22;4013;49.744;8.118;2023-10-31T06:28:00;10.80;99.90
7936;DHT22;4013;49.744;8.118;2023-10-31T06:30:27;10.80;99.90
7936;DHT22;4013;49.744;8.118;2023-10-31T06:32:53;10.80;99.90
7936;DHT22;4013;49.744;8.118;2023-10-31T06:35:20;10.70;99.90
7936;DHT22;4013;49.744;8.118;2023-10-31T06:37:49;10.70;99.90
7936;DHT22;4013;49.744;8.118;2023-10-31T06:40:17;10.80;99.90
7936;DHT22;4013;49.744;8.118;2023-10-31T06:42:44;10.80;99.90
7936;DHT22;4013;49.744;8.118;2023-10-31T06:45:10;10.90;99.90
7936;DHT22;4013;49.744;8.118;2023-10-31T06:47:37;10.80;99.90
7936;DHT22;4013;49.744;8.118;2023-10-31T06:50:04;10.80;99.90
7936;DHT22;4013;49.744;8.118;2023-10-31T06:52:32;10.80;99.90
7936;DHT22;4013;49.744;8.118;2023-10-31T06:54:58;10.80;99.90
7936;DHT22;4013;49.744;8.118;2023-10-31T06:57:27;10.80;99.90
7936;DHT22;4013;49.744;8.118;2023-10-31T06:59:54;10.80;99.90
7936;DHT22;4013;49.744;8.118;2023-10-31T07:02:21;10.80;99.90
7936;DHT22;4013;49.744;8.118;2023-10-31T07:04:48;10.80;99.90
7936;DHT22;4013;49.744;8.118;2023-10-31T07:07:14;10.80;99.90
7936;DHT22;4013;49.744;8.118;2023-10-31T07:09:41;10.90;99.90
7936;DHT22;4013;49.744;8.118;2023-10-31T07:12:08;10.90;99.90
7936;DHT22;4013;49.744;8.118;2023-10-31T07:14:36;10.90;99.90
7936;DHT22;4013;49.744;8.118;2023-10-31T07:17:03;10.90;99.90
7936;DHT22;4013;49.744;8.118;2023-10-31T07:19:31;10.80;99.90
7936;DHT22;4013;49.744;8.118;2023-10-31T07:21:58;10.80;99.90
7936;DHT22;4013;49.744;8.118;2023-10-31T07:24:25;10.80;99.90
7936;DHT22;4013;49.744;8.118;2023-10-31T07:26:53;10.80;99.90
7936;DHT22;4013;49.744;8.118;2023-10-31T07:29:20;10.80;99.90
7936;DHT22;4013;49.744;8.118;2023-10-31T07:31:48;10.90;99.90
7936;DHT22;4013;49.744;8.118;2023-10-31T07:34:15;10.90;99.90
7936;DHT22;4013;49.744;8.118;2023-10-31T07:36:42;10.90;99.90
7936;DHT22;4013;49.744;8.118;2023-10-31T07:39:09;10.90;99.90
7936;DHT22;4013;49.744;8.118;2023-10-31T07:41:38;10.90;99.90
7936;DHT22;4013;49.744;8.118;2023-10-31T07:44:05;10.90;99.90
7936;DHT22;4013;49.744;8.118;2023-10-31T07:46:32;11.00;99.90
7936;DHT22;4013;49.744;8.118;2023-10-31T07:49:01;11.10;99.90
7936;DHT22;4013;49.744;8.118;2023-10-31T07:51:28;11.10;99.90
7936;DHT22;4013;49.744;8.118;2023-10-31T07:53:55;11.20;99.90
7936;DHT22;4013;49.744;8.118;2023-10-31T07:56:23;11.30;99.90
7936;DHT22;4013;49.744;8.118;2023-10-31T07:58:50;11.30;99.90
7936;DHT22;4013;49.744;8.118;2023-10-31T08:01:17;11.30;99.90
7936;DHT22;4013;49.744;8.118;2023-10-31T08:03:45;11.40;99.90
7936;DHT22;4013;49.744;8.118;2023-10-31T08:06:13;11.40;99.90
7936;DHT22;4013;49.744;8.118;2023-10-31T08:08:40;11.50;99.90
7936;DHT22;4013;49.744;8.118;2023-10-31T08:11:07;11.60;99.90
7936;DHT22;4013;49.744;8.118;2023-10-31T08:13:35;11.60;99.90
7936;DHT22;4013;49.744;8.118;2023-10-31T08:16:02;11.70;99.90
7936;DHT22;4013;49.744;8.118;2023-10-31T08:18:29;11.80;99.90
7936;DHT22;4013;49.744;8.118;2023-10-31T08:20:56;11.80;99.90
7936;DHT22;4013;49.744;8.118;2023-10-31T08:23:25;11.90;99.90
7936;DHT22;4013;49.744;8.118;2023-10-31T08:25:51;11.90;99.90
7936;DHT22;4013;49.744;8.118;2023-10-31T08:28:18;12.00;99.90
7936;DHT22;4013;49.744;8.118;2023-10-31T08:30:45;12.00;99.90
7936;DHT22;4013;49.744;8.118;2023-10-31T08:33:12;12.00;99.90
7936;DHT22;4013;49.744;8.118;2023-10-31T08:35:39;12.00;99.90
7936;DHT22;4013;49.744;8.118;2023-10-31T08:38:06;12.00;99.90
7936;DHT22;4013;49.744;8.118;2023-10-31T08:40:35;12.00;99.90
7936;DHT22;4013;49.744;8.118;2023-10-31T08:43:01;12.00;99.90
7936;DHT22;4013;49.744;8.118;2023-10-31T08:45:29;12.00;99.90
7936;DHT22;4013;49.744;8.118;2023-10-31T08:47:56;12.00;99.90
7936;DHT22;4013;49.744;8.118;2023-10-31T08:50:23;12.00;99.90
7936;DHT22;4013;49.744;8.118;2023-10-31T08:52:50;12.00;99.90
7936;DHT22;4013;49.744;8.118;2023-10-31T08:55:17;12.00;99.90
7936;DHT22;4013;49.744;8.118;2023-10-31T08:57:45;12.00;99.90
7936;DHT22;4013;49.744;8.118;2023-10-31T09:00:12;12.10;99.90
7936;DHT22;4013;49.744;8.118;2023-10-31T09:02:39;12.00;99.90
7936;DHT22;4013;49.744;8.118;2023-10-31T09:05:06;12.00;99.90
7936;DHT22;4013;49.744;8.118;2023-10-31T09:07:33;12.00;99.90
7936;DHT22;4013;49.744;8.118;2023-10-31T09:10:00;12.10;99.90
7936;DHT22;4013;49.744;8.118;2023-10-31T09:12:28;12.00;99.90
7936;DHT22;4013;49.744;8.118;2023-10-31T09:14:57;12.10;99.90
7936;DHT22;4013;49.744;8.118;2023-10-31T09:17:24;12.10;99.90
7936;DHT22;4013;49.744;8.118;2023-10-31T09:19:50;12.10;99.90
7936;DHT22;4013;49.744;8.118;2023-10-31T09:22:19;12.20;99.90
7936;DHT22;4013;49.744;8.118;2023-10-31T09:24:46;12.20;99.90
7936;DHT22;4013;49.744;8.118;2023-10-31T09:27:12;12.30;99.90
7936;DHT22;4013;49.744;8.118;2023-10-31T09:29:39;12.40;99.90
7936;DHT22;4013;49.744;8.118;2023-10-31T09:32:08;12.40;99.90
7936;DHT22;4013;49.744;8.118;2023-10-31T09:34:35;12.40;99.90
7936;DHT22;4013;49.744;8.118;2023-10-31T09:37:02;12.40;99.90
7936;DHT22;4013;49.744;8.118;2023-10-31T09:39:29;12.50;99.90
7936;DHT22;4013;49.744;8.118;2023-10-31T09:41:56;12.50;99.90
7936;DHT22;4013;49.744;8.118;2023-10-31T09:44:23;12.60;99.90
7936;DHT22;4013;49.744;8.118;2023-10-31T09:46:51;12.60;99.90
7936;DHT22;4013;49.744;8.118;2023-10-31T09:49:19;12.50;99.90
7936;DHT22;4013;49.744;8.118;2023-10-31T09:51:46;12.50;99.90
7936;DHT22;4013;49.744;8.118;2023-10-31T09:54:14;12.60;99.90
7936;DHT22;4013;49.744;8.118;2023-10-31T09:56:41;12.60;99.90
7936;DHT22;4013;49.744;8.118;2023-10-31T09:59:08;12.60;99.90
7936;DHT22;4013;49.744;8.118;2023-10-31T10:01:35;12.50;99.90
7936;DHT22;4013;49.744;8.118;2023-10-31T10:04:02;12.50;99.90
7936;DHT22;4013;49.744;8.118;2023-10-31T10:06:31;12.50;99.90
7936;DHT22;4013;49.744;8.118;2023-10-31T10:08:58;12.60;99.90
7936;DHT22;4013;49.744;8.118;2023-10-31T10:11:25;12.60;99.90
7936;DHT22;4013;49.744;8.118;2023-10-31T10:13:53;12.60;99.90
7936;DHT22;4013;49.744;8.118;2023-10-31T10:16:29;12.60;99.90
7936;DHT22;4013;49.744;8.118;2023-10-31T10:18:56;12.70;99.90
7936;DHT22;4013;49.744;8.118;2023-10-31T10:21:23;12.60;99.90
7936;DHT22;4013;49.744;8.118;2023-10-31T10:23:52;12.70;99.90
7936;DHT22;4013;49.744;8.118;2023-10-31T10:26:19;12.70;99.90
7936;DHT22;4013;49.744;8.118;2023-10-31T10:28:49;12.70;99.90
7936;DHT22;4013;49.744;8.118;2023-10-31T10:31:16;12.70;99.90
7936;DHT22;4013;49.744;8.118;2023-10-31T10:33:43;12.80;99.90
7936;DHT22;4013;49.744;8.118;2023-10-31T10:36:10;12.80;99.90
7936;DHT22;4013;49.744;8.118;2023-10-31T10:38:37;12.80;99.90
7936;DHT22;4013;49.744;8.118;2023-10-31T10:41:06;12.80;99.90
7936;DHT22;4013;49.744;8.118;2023-10-31T10:43:34;12.80;99.90
7936;DHT22;4013;49.744;8.118;2023-10-31T10:46:03;12.80;99.90
7936;DHT22;4013;49.744;8.118;2023-10-31T10:48:30;12.80;99.90
7936;DHT22;4013;49.744;8.118;2023-10-31T10:51:04;12.70;99.90
7936;DHT22;4013;49.744;8.118;2023-10-31T10:53:34;12.70;99.90
7936;DHT22;4013;49.744;8.118;2023-10-31T10:56:03;12.70;99.90
7936;DHT22;4013;49.744;8.118;2023-10-31T10:58:37;12.70;99.90
7936;DHT22;4013;49.744;8.118;2023-10-31T11:01:07;12.70;99.90
7936;DHT22;4013;49.744;8.118;2023-10-31T11:03:35;12.70;99.90
7936;DHT22;4013;49.744;8.118;2023-10-31T11:06:02;12.70;99.90
7936;DHT22;4013;49.744;8.118;2023-10-31T11:08:29;12.70;99.90
7936;DHT22;4013;49.744;8.118;2023-10-31T11:10:58;12.80;99.90
7936;DHT22;4013;49.744;8.118;2023-10-31T11:13:25;12.80;99.90
7936;DHT22;4013;49.744;8.118;2023-10-31T11:15:55;12.80;99.90
7936;DHT22;4013;49.744;8.118;2023-10-31T11:18:23;12.90;99.90
7936;DHT22;4013;49.744;8.118;2023-10-31T11:20:52;13.00;99.90
7936;DHT22;4013;49.744;8.118;2023-10-31T11:23:19;13.00;99.90
7936;DHT22;4013;49.744;8.118;2023-10-31T11:25:46;13.10;99.90
7936;DHT22;4013;49.744;8.118;2023-10-31T11:28:16;13.20;99.90
7936;DHT22;4013;49.744;8.118;2023-10-31T11:30:43;13.20;99.90
7936;DHT22;4013;49.744;8.118;2023-10-31T11:33:14;13.20;99.90
7936;DHT22;4013;49.744;8.118;2023-10-31T11:35:41;13.30;99.90
7936;DHT22;4013;49.744;8.118;2023-10-31T11:38:10;13.30;99.90
7936;DHT22;4013;49.744;8.118;2023-10-31T11:40:38;13.30;99.90
7936;DHT22;4013;49.744;8.118;2023-10-31T11:43:24;13.40;99.90
7936;DHT22;4013;49.744;8.118;2023-10-31T11:45:51;13.50;99.90
7936;DHT22;4013;49.744;8.118;2023-10-31T11:48:43;13.60;99.90
7936;DHT22;4013;49.744;8.118;2023-10-31T11:51:08;13.70;99.90
7936;DHT22;4013;49.744;8.118;2023-10-31T11:53:36;13.70;99.90
7936;DHT22;4013;49.744;8.118;2023-10-31T11:56:05;13.80;99.90
7936;DHT22;4013;49.744;8.118;2023-10-31T11:58:32;13.70;99.90
7936;DHT22;4013;49.744;8.118;2023-10-31T12:01:01;13.70;99.90
7936;DHT22;4013;49.744;8.118;2023-10-31T12:03:36;13.70;99.90
7936;DHT22;4013;49.744;8.118;2023-10-31T12:06:03;13.60;99.90
7936;DHT22;4013;49.744;8.118;2023-10-31T12:08:31;13.60;99.90
7936;DHT22;4013;49.744;8.118;2023-10-31T12:11:07;13.60;99.90
7936;DHT22;4013;49.744;8.118;2023-10-31T12:13:35;13.60;99.90
7936;DHT22;4013;49.744;8.118;2023-10-31T12:16:02;13.60;99.90
7936;DHT22;4013;49.744;8.118;2023-10-31T12:18:30;13.60;99.90
7936;DHT22;4013;49.744;8.118;2023-10-31T12:20:57;13.70;99.90
7936;DHT22;4013;49.744;8.118;2023-10-31T12:23:24;13.70;99.90
7936;DHT22;4013;49.744;8.118;2023-10-31T12:25:50;13.80;99.90
7936;DHT22;4013;49.744;8.118;2023-10-31T12:28:17;13.90;99.90
7936;DHT22;4013;49.744;8.118;2023-10-31T12:30:45;14.00;99.90
7936;DHT22;4013;49.744;8.118;2023-10-31T12:33:12;14.10;99.90
7936;DHT22;4013;49.744;8.118;2023-10-31T12:35:40;14.20;99.90
7936;DHT22;4013;49.744;8.118;2023-10-31T12:38:09;14.20;99.90
7936;DHT22;4013;49.744;8.118;2023-10-31T12:40:36;14.20;99.90
7936;DHT22;4013;49.744;8.118;2023-10-31T12:43:03;14.10;99.90
7936;DHT22;4013;49.744;8.118;2023-10-31T12:45:30;14.20;99.90
7936;DHT22;4013;49.744;8.118;2023-10-31T12:48:00;14.20;99.90
7936;DHT22;4013;49.744;8.118;2023-10-31T12:50:29;14.10;99.90
7936;DHT22;4013;49.744;8.118;2023-10-31T12:52:57;14.10;99.90
7936;DHT22;4013;49.744;8.118;2023-10-31T12:55:25;14.10;99.90
7936;DHT22;4013;49.744;8.118;2023-10-31T12:57:52;14.00;99.90
7936;DHT22;4013;49.744;8.118;2023-10-31T13:00:19;14.00;99.90
7936;DHT22;4013;49.744;8.118;2023-10-31T13:02:50;14.00;99.90
7936;DHT22;4013;49.744;8.118;2023-10-31T13:05:17;14.20;99.90
7936;DHT22;4013;49.744;8.118;2023-10-31T13:07:50;14.50;99.90
7936;DHT22;4013;49.744;8.118;2023-10-31T13:10:19;15.10;99.90
7936;DHT22;4013;49.744;8.118;2023-10-31T13:12:46;16.10;99.90
7936;DHT22;4013;49.744;8.118;2023-10-31T13:15:13;16.70;99.90
7936;DHT22;4013;49.744;8.118;2023-10-31T13:17:40;17.30;99.90
7936;DHT22;4013;49.744;8.118;2023-10-31T13:20:09;17.80;99.90
7936;DHT22;4013;49.744;8.118;2023-10-31T13:22:36;18.10;99.90
7936;DHT22;4013;49.744;8.118;2023-10-31T13:25:03;18.30;99.90
7936;DHT22;4013;49.744;8.118;2023-10-31T13:27:32;18.40;99.90
7936;DHT22;4013;49.744;8.118;2023-10-31T13:29:59;18.40;99.90
7936;DHT22;4013;49.744;8.118;2023-10-31T13:32:25;18.40;99.90
7936;DHT22;4013;49.744;8.118;2023-10-31T13:34:52;18.40;99.90
7936;DHT22;4013;49.744;8.118;2023-10-31T13:37:19;17.70;99.90
7936;DHT22;4013;49.744;8.118;2023-10-31T13:39:46;17.50;99.90
7936;DHT22;4013;49.744;8.118;2023-10-31T13:42:13;17.60;99.90
7936;DHT22;4013;49.744;8.118;2023-10-31T13:44:42;17.90;99.90
7936;DHT22;4013;49.744;8.118;2023-10-31T13:47:09;18.40;99.90
7936;DHT22;4013;49.744;8.118;2023-10-31T13:49:36;19.10;99.90
7936;DHT22;4013;49.744;8.118;2023-10-31T13:52:03;19.50;99.90
7936;DHT22;4013;49.744;8.118;2023-10-31T13:54:30;19.60;99.90
7936;DHT22;4013;49.744;8.118;2023-10-31T13:56:57;19.60;99.90
7936;DHT22;4013;49.744;8.118;2023-10-31T13:59:24;19.10;99.90
7936;DHT22;4013;49.744;8.118;2023-10-31T14:01:53;18.20;99.90
7936;DHT22;4013;49.744;8.118;2023-10-31T14:04:20;17.50;99.90
7936;DHT22;4013;49.744;8.118;2023-10-31T14:06:47;16.90;99.90
7936;DHT22;4013;49.744;8.118;2023-10-31T14:09:14;16.50;99.90
7936;DHT22;4013;49.744;8.118;2023-10-31T14:11:42;16.30;99.90
7936;DHT22;4013;49.744;8.118;2023-10-31T14:14:09;16.10;99.90
7936;DHT22;4013;49.744;8.118;2023-10-31T14:16:38;15.90;99.90
7936;DHT22;4013;49.744;8.118;2023-10-31T14:19:07;15.50;99.90
7936;DHT22;4013;49.744;8.118;2023-10-31T14:21:33;15.30;99.90
7936;DHT22;4013;49.744;8.118;2023-10-31T14:24:00;15.60;99.90
7936;DHT22;4013;49.744;8.118;2023-10-31T14:26:29;15.70;99.90
7936;DHT22;4013;49.744;8.118;2023-10-31T14:28:58;15.50;99.90
7936;DHT22;4013;49.744;8.118;2023-10-31T14:31:25;15.30;99.90
7936;DHT22;4013;49.744;8.118;2023-10-31T14:33:52;15.10;99.90
7936;DHT22;4013;49.744;8.118;2023-10-31T14:36:20;14.90;99.90
7936;DHT22;4013;49.744;8.118;2023-10-31T14:38:47;14.70;99.90
7936;DHT22;4013;49.744;8.118;2023-10-31T14:41:14;14.50;99.90
7936;DHT22;4013;49.744;8.118;2023-10-31T14:43:41;14.50;99.90
7936;DHT22;4013;49.744;8.118;2023-10-31T14:46:08;14.40;99.90
7936;DHT22;4013;49.744;8.118;2023-10-31T14:48:35;14.30;99.90
7936;DHT22;4013;49.744;8.118;2023-10-31T14:51:02;14.30;99.90
7936;DHT22;4013;49.744;8.118;2023-10-31T14:53:30;14.20;99.90
7936;DHT22;4013;49.744;8.118;2023-10-31T14:55:57;14.20;99.90
7936;DHT22;4013;49.744;8.118;2023-10-31T14:58:24;14.20;99.90
7936;DHT22;4013;49.744;8.118;2023-10-31T15:00:51;14.10;99.90
7936;DHT22;4013;49.744;8.118;2023-10-31T15:03:17;14.10;99.90
7936;DHT22;4013;49.744;8.118;2023-10-31T15:05:44;14.00;99.90
7936;DHT22;4013;49.744;8.118;2023-10-31T15:08:11;13.90;99.90
7936;DHT22;4013;49.744;8.118;2023-10-31T15:10:39;13.90;99.90
7936;DHT22;4013;49.744;8.118;2023-10-31T15:13:06;13.80;99.90
7936;DHT22;4013;49.744;8.118;2023-10-31T15:15:33;13.90;99.90
7936;DHT22;4013;49.744;8.118;2023-10-31T15:18:00;13.90;99.90
7936;DHT22;4013;49.744;8.118;2023-10-31T15:20:27;13.80;99.90
7936;DHT22;4013;49.744;8.118;2023-10-31T15:22:56;13.70;99.90
7936;DHT22;4013;49.744;8.118;2023-10-31T15:25:23;13.70;99.90
7936;DHT22;4013;49.744;8.118;2023-10-31T15:27:51;13.60;99.90
7936;DHT22;4013;49.744;8.118;2023-10-31T15:30:18;13.60;99.90
7936;DHT22;4013;49.744;8.118;2023-10-31T15:32:45;13.60;99.90
7936;DHT22;4013;49.744;8.118;2023-10-31T15:35:13;13.60;99.90
7936;DHT22;4013;49.744;8.118;2023-10-31T15:37:40;13.60;99.90
7936;DHT22;4013;49.744;8.118;2023-10-31T15:40:09;13.60;99.90
7936;DHT22;4013;49.744;8.118;2023-10-31T15:42:35;13.60;99.90
7936;DHT22;4013;49.744;8.118;2023-10-31T15:45:05;13.60;99.90
7936;DHT22;4013;49.744;8.118;2023-10-31T15:47:32;13.60;99.90
7936;DHT22;4013;49.744;8.118;2023-10-31T15:49:59;13.50;99.90
7936;DHT22;4013;49.744;8.118;2023-10-31T15:52:25;13.60;99.90
7936;DHT22;4013;49.744;8.118;2023-10-31T15:54:52;13.60;99.90
7936;DHT22;4013;49.744;8.118;2023-10-31T15:57:19;13.60;99.90
7936;DHT22;4013;49.744;8.118;2023-10-31T15:59:47;13.50;99.90
7936;DHT22;4013;49.744;8.118;2023-10-31T16:02:16;13.60;99.90
7936;DHT22;4013;49.744;8.118;2023-10-31T16:04:43;13.50;99.90